Time;durP1;ratioP1;P1;durP2;ratioP2;P2;SDS_P1;SDS_P2;PMS_P1;PMS_P2;Temp;Humidity;BMP_temperature;BMP_pressure;BME280_temperature;BME280_humidity;BME280_pressure;Samples;Min_cycle;Max_cycle;Signal;HPM_P1;HPM_P2
2021/06/07 00:02:05;;;;;;;42.83;32.80;;;18.20;99.90;;;;;;4983007;28;21239;-66
2021/06/07 00:04:33;;;;;;;37.97;31.83;;;18.10;99.90;;;;;;4989082;28;20994;-65
2021/06/07 00:07:01;;;;;;;44.13;33.53;;;18.20;99.90;;;;;;4973722;28;20792;-66
2021/06/07 00:09:30;;;;;;;37.17;29.90;;;18.10;99.90;;;;;;4979410;28;20652;-66
2021/06/07 00:12:02;;;;;;;43.40;33.83;;;18.10;99.90;;;;;;4978091;28;20715;-65
2021/06/07 00:14:32;;;;;;;40.87;33.37;;;18.20;99.90;;;;;;4978773;28;20764;-66
2021/06/07 00:16:58;;;;;;;47.73;32.93;;;18.10;99.90;;;;;;4954077;28;20749;-65
2021/06/07 00:19:28;;;;;;;48.23;35.27;;;18.20;99.90;;;;;;4956792;28;20684;-65
2021/06/07 00:21:54;;;;;;;47.17;34.73;;;18.20;99.90;;;;;;4977363;28;21036;-65
2021/06/07 00:24:20;;;;;;;48.60;34.80;;;18.10;99.90;;;;;;4973572;28;20649;-65
2021/06/07 00:26:49;;;;;;;43.67;33.37;;;18.00;99.90;;;;;;4973888;28;20186;-65
2021/06/07 00:29:17;;;;;;;44.27;33.63;;;18.10;99.90;;;;;;4985001;28;20655;-65
2021/06/07 00:31:47;;;;;;;42.50;32.60;;;18.00;99.90;;;;;;4966724;28;20621;-65
2021/06/07 00:34:16;;;;;;;44.33;36.40;;;18.00;99.90;;;;;;4978629;28;20766;-65
2021/06/07 00:36:44;;;;;;;45.63;34.63;;;18.00;99.90;;;;;;4978086;28;20671;-65
2021/06/07 00:39:14;;;;;;;41.00;33.07;;;18.00;99.90;;;;;;4979566;28;20683;-65
2021/06/07 00:41:42;;;;;;;40.80;32.40;;;17.90;99.90;;;;;;4960182;28;20634;-65
2021/06/07 00:44:13;;;;;;;43.37;34.20;;;17.90;99.90;;;;;;4976373;28;21820;-65
2021/06/07 00:46:40;;;;;;;44.43;33.37;;;17.90;99.90;;;;;;4976509;28;20631;-65
2021/06/07 00:49:07;;;;;;;41.50;34.67;;;18.00;99.90;;;;;;4963513;28;20751;-65
2021/06/07 00:51:33;;;;;;;38.50;32.03;;;17.90;99.90;;;;;;4975376;28;21314;-65
2021/06/07 00:53:59;;;;;;;40.47;33.47;;;18.10;99.90;;;;;;4981040;28;20657;-65
2021/06/07 00:56:27;;;;;;;47.43;36.47;;;18.00;99.90;;;;;;4985501;28;20739;-65
2021/06/07 00:58:52;;;;;;;43.70;35.30;;;18.00;99.90;;;;;;4979716;28;20214;-65
2021/06/07 01:01:21;;;;;;;38.43;30.90;;;18.00;99.90;;;;;;4980720;28;20651;-65
2021/06/07 01:03:51;;;;;;;41.47;33.43;;;18.00;99.90;;;;;;4974809;28;20736;-65
2021/06/07 01:06:17;;;;;;;38.90;33.90;;;17.90;99.90;;;;;;4979775;28;20694;-65
2021/06/07 01:08:43;;;;;;;41.63;34.63;;;17.90;99.90;;;;;;4974384;28;20635;-65
2021/06/07 01:11:09;;;;;;;44.70;36.60;;;17.90;99.90;;;;;;4979209;28;20674;-65
2021/06/07 01:13:38;;;;;;;40.30;35.47;;;17.90;99.90;;;;;;4977785;28;20291;-65
2021/06/07 01:16:05;;;;;;;38.77;32.97;;;17.90;99.90;;;;;;4973191;28;20632;-65
2021/06/07 01:18:31;;;;;;;39.57;32.47;;;17.90;99.90;;;;;;4978793;28;21275;-65
2021/06/07 01:21:10;;;;;;;40.43;33.77;;;17.90;99.90;;;;;;4974602;28;21166;-65
2021/06/07 01:23:37;;;;;;;43.13;35.23;;;17.90;99.90;;;;;;4953691;28;20854;-65
2021/06/07 01:26:05;;;;;;;43.00;35.50;;;17.90;99.90;;;;;;4959546;28;20679;-65
2021/06/07 01:28:31;;;;;;;38.87;33.07;;;17.90;99.90;;;;;;4976652;28;20625;-65
2021/06/07 01:31:00;;;;;;;43.53;36.60;;;17.80;99.90;;;;;;4965949;28;20656;-65
2021/06/07 01:33:30;;;;;;;46.23;37.10;;;17.90;99.90;;;;;;4959308;28;21142;-65
2021/06/07 01:35:57;;;;;;;45.20;35.83;;;17.90;99.90;;;;;;4977902;28;20636;-65
2021/06/07 01:38:23;;;;;;;45.67;37.40;;;17.80;99.90;;;;;;4984905;28;21242;-65
2021/06/07 01:40:51;;;;;;;50.20;37.50;;;17.70;99.90;;;;;;4977261;28;20751;-65
2021/06/07 01:43:17;;;;;;;44.40;35.03;;;17.70;99.90;;;;;;4971255;28;20240;-65
2021/06/07 01:45:47;;;;;;;44.33;36.87;;;17.70;99.90;;;;;;4977768;28;20638;-65
2021/06/07 01:48:17;;;;;;;48.67;38.67;;;17.70;99.90;;;;;;4971890;28;20626;-65
2021/06/07 01:50:44;;;;;;;47.63;36.43;;;17.70;99.90;;;;;;5008416;23;20779;-92
2021/06/07 01:53:11;;;;;;;45.90;34.70;;;17.90;99.90;;;;;;5022385;28;20647;-91
2021/06/07 01:55:40;;;;;;;42.53;37.43;;;17.70;99.90;;;;;;5009369;28;20645;-90
2021/06/07 01:58:08;;;;;;;41.47;35.93;;;17.60;99.90;;;;;;5009002;28;20995;-87
2021/06/07 02:00:51;;;;;;;41.03;34.47;;;17.60;99.90;;;;;;4996786;28;20667;-86
2021/06/07 02:03:17;;;;;;;43.93;37.03;;;17.80;99.90;;;;;;5005336;28;20751;-87
2021/06/07 02:05:46;;;;;;;45.57;35.43;;;17.70;99.90;;;;;;4991827;28;20636;-86
2021/06/07 02:08:14;;;;;;;43.23;34.60;;;17.60;99.90;;;;;;4996100;28;20706;-86
2021/06/07 02:10:46;;;;;;;41.27;34.17;;;17.50;99.90;;;;;;5005801;28;20773;-86
2021/06/07 02:13:13;;;;;;;45.03;34.50;;;17.70;99.90;;;;;;4965168;28;20655;-92
2021/06/07 02:15:40;;;;;;;40.37;32.20;;;17.60;99.90;;;;;;4990128;28;20635;-87
2021/06/07 02:18:09;;;;;;;48.20;36.63;;;17.60;99.90;;;;;;5009297;28;20632;-86
2021/06/07 02:20:35;;;;;;;46.17;36.50;;;17.70;99.90;;;;;;4975135;28;20754;-88
2021/06/07 02:23:01;;;;;;;42.57;35.30;;;17.50;99.90;;;;;;5006504;28;20821;-90
2021/06/07 02:25:27;;;;;;;40.20;31.63;;;17.60;99.90;;;;;;4994769;28;21710;-87
2021/06/07 02:27:53;;;;;;;44.07;34.00;;;17.60;99.90;;;;;;5008819;28;20262;-89
2021/06/07 02:30:24;;;;;;;46.23;36.20;;;17.60;99.90;;;;;;4995596;28;20283;-85
2021/06/07 02:32:54;;;;;;;54.87;36.43;;;17.50;99.90;;;;;;5005753;28;20608;-88
2021/06/07 02:35:20;;;;;;;44.67;35.63;;;17.50;99.90;;;;;;5006682;28;20621;-89
2021/06/07 02:37:48;;;;;;;46.77;34.80;;;17.50;99.90;;;;;;4989800;28;20621;-87
2021/06/07 02:40:17;;;;;;;50.10;36.30;;;17.70;99.90;;;;;;5002657;28;20653;-90
2021/06/07 02:42:43;;;;;;;44.33;34.40;;;17.60;99.90;;;;;;4991259;28;20687;-87
2021/06/07 02:45:12;;;;;;;42.27;33.40;;;17.70;99.90;;;;;;4996562;28;20614;-89
2021/06/07 02:47:39;;;;;;;44.93;34.23;;;17.60;99.90;;;;;;4996893;28;20189;-92
2021/06/07 02:50:09;;;;;;;46.37;35.70;;;17.60;99.90;;;;;;4993319;28;20766;-89
2021/06/07 02:52:46;;;;;;;47.20;33.80;;;17.40;99.90;;;;;;4981353;28;20625;-89
2021/06/07 02:55:20;;;;;;;43.37;36.03;;;17.50;99.90;;;;;;5011748;28;20716;-88
2021/06/07 02:57:47;;;;;;;50.30;36.50;;;17.50;99.90;;;;;;5013209;28;20647;-86
2021/06/07 03:00:15;;;;;;;47.70;35.17;;;17.50;99.90;;;;;;5013239;28;21156;-86
2021/06/07 03:02:41;;;;;;;49.00;36.30;;;17.50;99.90;;;;;;5008454;28;20664;-87
2021/06/07 03:05:07;;;;;;;43.30;34.23;;;17.50;99.90;;;;;;4995580;28;20632;-88
2021/06/07 03:07:32;;;;;;;39.23;32.17;;;17.60;99.90;;;;;;5014387;28;20252;-87
2021/06/07 03:09:58;;;;;;;39.73;32.00;;;17.60;99.90;;;;;;5013778;28;20624;-87
2021/06/07 03:12:24;;;;;;;39.07;32.20;;;17.60;99.90;;;;;;4995193;28;20601;-90
2021/06/07 03:14:50;;;;;;;44.47;33.13;;;17.60;99.90;;;;;;4993488;28;20225;-85
2021/06/07 03:17:16;;;;;;;44.47;32.87;;;17.60;99.90;;;;;;5011000;28;20197;-87
2021/06/07 03:19:41;;;;;;;44.10;35.73;;;17.60;99.90;;;;;;4995657;28;20324;-88
2021/06/07 03:22:07;;;;;;;43.50;36.20;;;17.60;99.90;;;;;;4993473;28;20928;-87
2021/06/07 03:24:33;;;;;;;39.93;33.90;;;17.80;99.90;;;;;;5008329;28;20221;-88
2021/06/07 03:26:58;;;;;;;43.63;33.57;;;17.60;99.90;;;;;;4993713;28;20187;-84
2021/06/07 03:29:24;;;;;;;43.73;34.60;;;17.60;99.90;;;;;;4994088;28;20978;-84
2021/06/07 03:31:50;;;;;;;44.30;34.90;;;17.60;99.90;;;;;;4995026;28;20205;-84
2021/06/07 03:34:16;;;;;;;44.13;34.97;;;17.60;99.90;;;;;;4994592;28;20795;-88
2021/06/07 03:36:41;;;;;;;41.33;33.90;;;17.60;99.90;;;;;;4990073;28;20193;-88
2021/06/07 03:39:07;;;;;;;47.00;37.30;;;17.60;99.90;;;;;;4992836;28;20189;-88
2021/06/07 03:41:32;;;;;;;42.80;34.03;;;17.70;99.90;;;;;;4996209;28;20220;-86
2021/06/07 03:43:58;;;;;;;43.73;34.10;;;17.60;99.90;;;;;;4992232;28;20237;-87
2021/06/07 03:46:24;;;;;;;44.40;35.27;;;17.60;99.90;;;;;;4991102;28;20201;-88
2021/06/07 03:48:49;;;;;;;46.33;34.30;;;17.60;99.90;;;;;;4990161;28;20212;-92
2021/06/07 03:51:15;;;;;;;42.93;33.63;;;17.70;99.90;;;;;;4993947;28;20240;-91
2021/06/07 03:53:40;;;;;;;41.67;33.27;;;17.60;99.90;;;;;;5007134;28;20384;-90
2021/06/07 03:56:06;;;;;;;47.83;36.67;;;17.60;99.90;;;;;;5008823;28;20186;-90
2021/06/07 03:58:32;;;;;;;37.73;32.17;;;17.60;99.90;;;;;;4995083;28;20205;-92
2021/06/07 04:00:58;;;;;;;42.00;33.90;;;17.60;99.90;;;;;;4992775;28;20297;-93
2021/06/07 04:03:24;;;;;;;39.77;34.60;;;17.60;99.90;;;;;;4993375;28;20664;-88
2021/06/07 04:05:49;;;;;;;40.93;33.43;;;17.60;99.90;;;;;;4988858;28;20189;-87
2021/06/07 04:08:15;;;;;;;42.70;32.40;;;17.50;99.90;;;;;;4994474;28;20529;-85
2021/06/07 04:10:44;;;;;;;42.00;34.77;;;17.70;99.90;;;;;;4992528;28;20227;-86
2021/06/07 04:13:09;;;;;;;41.87;34.03;;;17.40;99.90;;;;;;5009104;28;20221;-85
2021/06/07 04:15:35;;;;;;;42.13;34.47;;;17.60;99.90;;;;;;4988561;28;21014;-88
2021/06/07 04:18:01;;;;;;;45.17;35.37;;;17.70;99.90;;;;;;4993966;28;20201;-89
2021/06/07 04:20:30;;;;;;;43.27;35.03;;;17.70;99.90;;;;;;4995227;28;20680;-84
2021/06/07 04:22:56;;;;;;;47.77;37.70;;;17.70;99.90;;;;;;4992138;28;20705;-85
2021/06/07 04:25:24;;;;;;;48.63;36.23;;;17.70;99.90;;;;;;4991730;28;21018;-85
2021/06/07 04:27:51;;;;;;;49.50;37.27;;;17.70;99.90;;;;;;4992747;28;21190;-88
2021/06/07 04:30:19;;;;;;;52.57;39.13;;;17.70;99.90;;;;;;5007963;28;20656;-92
2021/06/07 04:32:47;;;;;;;48.80;36.87;;;17.60;99.90;;;;;;4996625;28;20704;-87
2021/06/07 04:35:14;;;;;;;54.23;38.63;;;17.70;99.90;;;;;;4995193;28;21240;-89
2021/06/07 04:37:49;;;;;;;54.60;38.70;;;17.70;99.90;;;;;;5007600;28;20642;-94
2021/06/07 04:40:27;;;;;;;53.27;38.80;;;17.70;99.90;;;;;;5005195;28;20644;-88
2021/06/07 04:42:56;;;;;;;48.87;34.90;;;17.70;99.90;;;;;;5010371;28;20714;-89
2021/06/07 04:45:23;;;;;;;50.43;35.20;;;17.70;99.90;;;;;;5008200;28;20616;-87
2021/06/07 04:47:49;;;;;;;49.13;36.47;;;17.90;99.90;;;;;;4994065;28;20620;-90
2021/06/07 04:50:17;;;;;;;47.43;35.77;;;17.70;99.90;;;;;;4996191;28;20686;-86
2021/06/07 04:52:59;;;;;;;45.27;34.47;;;17.70;99.90;;;;;;4994389;28;20633;-87
2021/06/07 04:55:26;;;;;;;47.23;36.00;;;17.70;99.90;;;;;;4994168;28;20639;-89
2021/06/07 04:57:51;;;;;;;43.93;34.33;;;17.70;99.90;;;;;;4989224;28;20644;-87
2021/06/07 05:00:19;;;;;;;43.93;35.40;;;17.70;99.90;;;;;;5011727;28;20656;-86
2021/06/07 05:02:45;;;;;;;43.40;33.93;;;17.70;99.90;;;;;;4971671;28;20375;-87
2021/06/07 05:05:23;;;;;;;46.40;35.40;;;17.70;99.90;;;;;;5011772;28;20628;-89
2021/06/07 05:07:49;;;;;;;37.90;31.43;;;17.70;99.90;;;;;;5012505;28;20193;-90
2021/06/07 05:10:16;;;;;;;40.80;33.43;;;17.80;99.90;;;;;;4994045;28;20743;-86
2021/06/07 05:12:42;;;;;;;40.63;32.70;;;17.80;99.90;;;;;;4995199;28;20193;-90
2021/06/07 05:15:09;;;;;;;38.80;33.50;;;17.90;99.90;;;;;;4983946;28;21324;-90
2021/06/07 05:17:35;;;;;;;42.83;34.17;;;17.80;99.90;;;;;;4993154;28;20635;-91
2021/06/07 05:20:01;;;;;;;40.27;32.53;;;18.00;99.90;;;;;;5010534;28;21193;-88
2021/06/07 05:22:27;;;;;;;42.70;34.87;;;18.10;99.90;;;;;;4999109;28;20224;-91
2021/06/07 05:24:53;;;;;;;38.77;31.70;;;18.10;99.90;;;;;;5005623;28;20206;-91
2021/06/07 05:27:19;;;;;;;37.57;31.93;;;18.00;99.90;;;;;;5008219;28;20632;-89
2021/06/07 05:29:44;;;;;;;38.53;33.20;;;18.00;99.90;;;;;;5000047;28;20655;-86
2021/06/07 05:32:11;;;;;;;41.13;34.03;;;18.00;99.90;;;;;;4989389;28;20209;-87
2021/06/07 05:34:36;;;;;;;39.83;32.23;;;18.00;99.90;;;;;;4988170;28;20228;-85
2021/06/07 05:37:02;;;;;;;39.10;32.97;;;18.00;99.90;;;;;;5005470;28;20620;-90
2021/06/07 05:39:28;;;;;;;43.90;34.40;;;18.00;99.90;;;;;;4988328;28;20189;-85
2021/06/07 05:41:53;;;;;;;39.03;33.60;;;18.10;99.90;;;;;;4992713;28;20216;-84
2021/06/07 05:44:19;;;;;;;41.10;34.70;;;18.00;99.90;;;;;;4988637;28;20387;-90
2021/06/07 05:46:47;;;;;;;41.63;34.33;;;18.00;99.90;;;;;;4995270;28;20216;-85
2021/06/07 05:49:13;;;;;;;43.93;34.33;;;17.90;99.90;;;;;;5003476;28;20197;-87
2021/06/07 05:51:39;;;;;;;42.20;33.50;;;18.00;99.90;;;;;;5002315;28;20806;-88
2021/06/07 05:54:05;;;;;;;43.03;33.37;;;18.00;99.90;;;;;;4996296;28;20668;-89
2021/06/07 05:56:30;;;;;;;45.53;33.37;;;18.00;99.90;;;;;;5006212;28;20198;-86
2021/06/07 05:58:59;;;;;;;46.67;35.00;;;18.10;99.90;;;;;;4995483;28;20200;-85
2021/06/07 06:01:25;;;;;;;39.43;33.37;;;18.10;99.90;;;;;;4997209;28;20213;-86
2021/06/07 06:03:52;;;;;;;41.03;34.90;;;18.10;99.90;;;;;;4991353;28;20659;-87
2021/06/07 06:06:18;;;;;;;43.67;33.57;;;18.20;99.90;;;;;;4973440;28;20636;-88
2021/06/07 06:08:43;;;;;;;42.03;33.00;;;18.20;99.90;;;;;;5008965;28;20706;-86
2021/06/07 06:11:09;;;;;;;40.20;33.37;;;18.20;99.90;;;;;;4995391;28;20245;-87
2021/06/07 06:13:36;;;;;;;44.17;34.23;;;18.20;99.90;;;;;;4998156;28;20308;-87
2021/06/07 06:16:01;;;;;;;41.30;32.30;;;18.20;99.90;;;;;;4999050;28;20823;-85
2021/06/07 06:18:27;;;;;;;41.93;32.80;;;18.20;99.90;;;;;;4995016;28;20661;-86
2021/06/07 06:20:52;;;;;;;43.07;34.43;;;18.30;99.90;;;;;;4993522;28;20255;-88
2021/06/07 06:23:18;;;;;;;41.03;32.40;;;18.30;99.90;;;;;;4991286;28;20234;-86
2021/06/07 06:25:44;;;;;;;41.50;34.00;;;18.20;99.90;;;;;;4993314;28;21744;-87
2021/06/07 06:28:09;;;;;;;38.63;32.57;;;18.40;99.90;;;;;;4992849;28;20288;-89
2021/06/07 06:30:35;;;;;;;43.97;33.70;;;18.30;99.90;;;;;;5002118;28;20235;-88
2021/06/07 06:33:02;;;;;;;38.63;32.47;;;18.30;99.90;;;;;;5005687;28;20185;-88
2021/06/07 06:35:29;;;;;;;36.00;31.70;;;18.20;99.90;;;;;;5013172;28;20608;-88
2021/06/07 06:37:54;;;;;;;35.63;31.70;;;18.50;99.90;;;;;;4992225;28;20620;-93
2021/06/07 06:40:31;;;;;;;37.90;31.20;;;18.20;99.90;;;;;;5008975;28;20659;-90
2021/06/07 06:42:58;;;;;;;36.93;30.27;;;18.20;99.90;;;;;;4990447;28;20197;-89
2021/06/07 06:45:25;;;;;;;32.70;29.03;;;18.30;99.90;;;;;;5005722;28;20604;-88
2021/06/07 06:47:56;;;;;;;35.20;29.70;;;18.30;99.90;;;;;;5010657;28;20671;-88
2021/06/07 06:50:26;;;;;;;38.63;31.40;;;18.30;99.90;;;;;;4991058;28;20744;-90
2021/06/07 06:52:52;;;;;;;37.23;31.50;;;18.20;99.90;;;;;;4989915;28;21045;-88
2021/06/07 06:55:18;;;;;;;37.97;30.80;;;18.20;99.90;;;;;;4989477;28;20659;-88
2021/06/07 06:57:44;;;;;;;35.93;30.43;;;18.20;99.90;;;;;;4992487;28;20616;-89
2021/06/07 07:00:11;;;;;;;37.20;30.10;;;18.20;99.90;;;;;;4996050;28;20197;-85
2021/06/07 07:02:37;;;;;;;33.63;29.93;;;18.20;99.90;;;;;;4993448;28;20676;-88
2021/06/07 07:05:04;;;;;;;37.87;32.47;;;18.20;99.90;;;;;;4993727;28;20660;-88
2021/06/07 07:07:30;;;;;;;35.63;30.77;;;18.20;99.90;;;;;;4993787;28;20652;-87
2021/06/07 07:09:56;;;;;;;37.03;30.43;;;18.30;99.90;;;;;;5011075;28;20635;-89
2021/06/07 07:12:24;;;;;;;35.60;30.37;;;18.20;99.90;;;;;;4995239;28;20948;-89
2021/06/07 07:14:50;;;;;;;36.03;29.90;;;18.20;99.90;;;;;;4991273;28;20225;-89
2021/06/07 07:17:15;;;;;;;37.93;32.37;;;18.50;99.90;;;;;;4992448;28;20612;-89
2021/06/07 07:19:42;;;;;;;34.43;29.70;;;18.50;99.90;;;;;;4992898;28;20600;-88
2021/06/07 07:22:08;;;;;;;34.60;29.20;;;18.40;99.90;;;;;;5009118;28;20201;-88
2021/06/07 07:24:34;;;;;;;33.43;28.63;;;18.40;99.90;;;;;;5010182;28;20738;-89
2021/06/07 07:27:00;;;;;;;40.10;32.03;;;18.50;99.90;;;;;;4993478;28;20715;-90
2021/06/07 07:29:26;;;;;;;36.97;32.00;;;18.50;99.90;;;;;;4994860;28;20280;-90
2021/06/07 07:31:52;;;;;;;39.50;31.83;;;18.40;99.90;;;;;;4993617;28;20653;-90
2021/06/07 07:34:18;;;;;;;36.10;31.10;;;18.50;99.90;;;;;;4992039;28;20743;-89
2021/06/07 07:36:43;;;;;;;34.53;30.80;;;18.50;99.90;;;;;;4991733;28;20624;-88
2021/06/07 07:39:09;;;;;;;35.93;30.77;;;18.50;99.90;;;;;;4998280;28;20165;-91
2021/06/07 07:41:35;;;;;;;38.73;31.83;;;18.50;99.90;;;;;;5014689;28;20224;-90
2021/06/07 07:44:01;;;;;;;35.57;30.50;;;18.50;99.90;;;;;;5030297;28;20237;-91
2021/06/07 07:46:26;;;;;;;36.00;31.10;;;18.70;99.90;;;;;;5015070;28;20624;-91
2021/06/07 07:48:52;;;;;;;37.50;32.90;;;18.50;99.90;;;;;;5017833;28;20637;-88
2021/06/07 07:51:18;;;;;;;38.90;30.50;;;18.70;99.90;;;;;;5011324;22;20264;-68
2021/06/07 07:53:43;;;;;;;35.90;31.80;;;18.60;99.90;;;;;;5002766;28;20224;-68
2021/06/07 07:56:09;;;;;;;34.10;30.33;;;18.60;99.90;;;;;;5024240;28;20185;-68
2021/06/07 07:58:35;;;;;;;32.30;28.27;;;18.70;99.90;;;;;;5007680;28;20561;-68
2021/06/07 08:01:01;;;;;;;40.83;32.43;;;18.70;99.90;;;;;;5021008;28;20642;-68
2021/06/07 08:03:28;;;;;;;35.90;30.40;;;18.80;99.90;;;;;;4997356;28;20662;-68
2021/06/07 08:05:56;;;;;;;35.60;31.33;;;18.80;99.90;;;;;;5025478;28;20218;-68
2021/06/07 08:08:24;;;;;;;33.70;30.20;;;19.00;99.90;;;;;;5006184;28;20615;-67
2021/06/07 08:10:55;;;;;;;33.53;29.90;;;19.00;99.90;;;;;;5021715;28;20770;-67
2021/06/07 08:13:21;;;;;;;34.83;31.33;;;19.10;99.90;;;;;;5010831;28;20638;-67
2021/06/07 08:15:46;;;;;;;33.50;30.10;;;19.20;99.90;;;;;;5006695;28;20627;-67
2021/06/07 08:18:15;;;;;;;33.27;29.80;;;19.30;99.90;;;;;;5015414;28;20198;-67
2021/06/07 08:20:41;;;;;;;31.50;28.10;;;19.30;99.90;;;;;;5007448;28;20240;-67
2021/06/07 08:23:09;;;;;;;32.37;28.83;;;19.40;99.90;;;;;;5021842;28;20650;-67
2021/06/07 08:25:34;;;;;;;35.43;31.73;;;19.50;99.90;;;;;;5023479;28;20213;-67
2021/06/07 08:28:00;;;;;;;33.77;29.97;;;19.60;99.90;;;;;;5018646;28;20654;-67
2021/06/07 08:30:28;;;;;;;32.10;28.80;;;19.70;99.90;;;;;;5022372;28;20686;-68
2021/06/07 08:32:53;;;;;;;32.40;28.77;;;19.80;99.90;;;;;;5023459;28;20190;-64
2021/06/07 08:35:20;;;;;;;32.37;29.07;;;19.80;99.90;;;;;;5001373;28;20606;-67
2021/06/07 08:37:48;;;;;;;31.33;28.10;;;19.90;99.90;;;;;;5000977;28;20585;-67
2021/06/07 08:40:15;;;;;;;32.77;29.47;;;20.00;99.90;;;;;;5002010;28;20666;-67
2021/06/07 08:42:44;;;;;;;33.67;30.07;;;20.10;99.90;;;;;;5012381;28;20655;-65
2021/06/07 08:45:13;;;;;;;33.00;29.40;;;20.20;99.90;;;;;;4982195;28;20631;-66
2021/06/07 08:47:44;;;;;;;34.20;30.67;;;20.40;99.90;;;;;;4993665;28;20754;-66
2021/06/07 08:50:13;;;;;;;31.17;28.07;;;20.40;99.90;;;;;;5015483;28;20635;-66
2021/06/07 08:52:43;;;;;;;30.33;27.20;;;20.50;99.90;;;;;;5015270;28;20618;-66
2021/06/07 08:55:13;;;;;;;32.43;29.23;;;20.50;99.90;;;;;;5010507;28;20656;-66
2021/06/07 08:57:41;;;;;;;33.30;29.27;;;20.50;99.90;;;;;;5016333;28;21025;-66
2021/06/07 09:00:08;;;;;;;34.17;28.63;;;20.50;99.90;;;;;;5012443;28;20655;-66
2021/06/07 09:02:36;;;;;;;30.37;27.27;;;20.40;99.90;;;;;;5012485;28;20651;-66
2021/06/07 09:05:03;;;;;;;30.47;27.47;;;20.40;99.90;;;;;;5008396;28;20639;-67
2021/06/07 09:07:31;;;;;;;32.13;28.83;;;20.50;99.90;;;;;;5015521;28;20619;-67
2021/06/07 09:10:11;;;;;;;30.50;27.30;;;20.50;99.90;;;;;;5009900;28;20659;-66
2021/06/07 09:12:41;;;;;;;31.03;27.87;;;20.70;99.90;;;;;;5000060;28;21708;-66
2021/06/07 09:15:07;;;;;;;31.57;28.40;;;20.70;99.90;;;;;;5009281;28;20658;-66
2021/06/07 09:17:32;;;;;;;30.33;27.17;;;20.70;99.90;;;;;;5013492;28;20772;-66
2021/06/07 09:20:14;;;;;;;28.60;25.73;;;20.80;99.90;;;;;;5009041;28;21123;-65
2021/06/07 09:23:00;;;;;;;28.03;25.33;;;21.00;99.90;;;;;;5016937;28;20208;-66
2021/06/07 09:25:30;;;;;;;28.47;25.67;;;21.00;99.90;;;;;;5017429;28;20658;-65
2021/06/07 09:28:01;;;;;;;29.33;26.23;;;21.10;99.90;;;;;;5014825;28;20949;-65
2021/06/07 09:30:36;;;;;;;28.40;25.63;;;21.10;99.90;;;;;;4993969;28;20650;-66
2021/06/07 09:33:19;;;;;;;27.03;24.33;;;21.20;99.90;;;;;;5005693;28;20770;-66
2021/06/07 09:35:47;;;;;;;26.47;23.67;;;21.10;99.90;;;;;;5018636;28;20701;-66
2021/06/07 09:38:13;;;;;;;27.07;24.47;;;21.10;99.90;;;;;;5016098;28;20616;-66
2021/06/07 09:40:38;;;;;;;29.70;26.67;;;21.10;99.90;;;;;;5015612;28;20679;-68
2021/06/07 09:43:08;;;;;;;29.50;26.40;;;21.00;99.90;;;;;;4992792;28;20674;-65
2021/06/07 09:45:54;;;;;;;29.40;26.40;;;21.00;99.90;;;;;;5014198;28;20278;-67
2021/06/07 09:48:19;;;;;;;29.90;27.00;;;21.10;99.90;;;;;;5019244;28;20643;-67
2021/06/07 09:51:02;;;;;;;29.60;26.80;;;21.00;99.90;;;;;;5018026;28;20673;-67
2021/06/07 09:53:51;;;;;;;30.00;27.10;;;21.00;99.90;;;;;;4988813;28;20778;-66
2021/06/07 09:56:18;;;;;;;28.80;26.00;;;21.10;99.90;;;;;;5018914;28;20615;-67
2021/06/07 09:58:46;;;;;;;28.87;26.13;;;21.10;99.90;;;;;;5012858;28;22724;-67
2021/06/07 10:01:17;;;;;;;29.57;26.67;;;21.10;99.90;;;;;;5014547;28;20651;-67
2021/06/07 10:03:49;;;;;;;28.90;26.20;;;21.10;99.90;;;;;;4992073;28;21348;-67
2021/06/07 10:06:38;;;;;;;28.90;26.07;;;21.00;99.90;;;;;;4997996;28;20621;-66
2021/06/07 10:09:11;;;;;;;29.57;26.77;;;21.10;99.90;;;;;;5012644;28;21298;-68
2021/06/07 10:11:45;;;;;;;30.37;27.17;;;21.10;99.90;;;;;;5019272;28;21211;-66
2021/06/07 10:14:22;;;;;;;28.80;25.90;;;21.10;99.90;;;;;;4984881;28;20734;-65
2021/06/07 10:16:59;;;;;;;27.97;25.13;;;21.10;99.90;;;;;;5003743;28;20627;-66
2021/06/07 10:19:34;;;;;;;28.17;25.47;;;21.20;99.90;;;;;;5014655;28;21119;-66
2021/06/07 10:22:05;;;;;;;26.63;24.13;;;21.40;99.90;;;;;;4995287;28;23323;-66
2021/06/07 10:24:31;;;;;;;28.40;25.70;;;21.40;99.90;;;;;;5006550;28;20701;-65
2021/06/07 10:26:59;;;;;;;27.93;25.33;;;21.40;99.90;;;;;;5014828;28;20710;-66
2021/06/07 10:29:36;;;;;;;28.00;25.20;;;21.40;99.90;;;;;;5009641;28;20647;-65
2021/06/07 10:32:07;;;;;;;27.73;25.13;;;21.50;99.90;;;;;;5014539;28;20611;-67
2021/06/07 10:34:51;;;;;;;26.93;24.37;;;21.50;99.90;;;;;;4995062;28;20912;-67
2021/06/07 10:37:19;;;;;;;28.40;25.60;;;21.50;99.90;;;;;;5013348;28;21277;-67
2021/06/07 10:39:45;;;;;;;26.63;23.87;;;21.60;99.90;;;;;;5014230;28;20700;-67
2021/06/07 10:42:21;;;;;;;27.20;24.30;;;21.60;99.90;;;;;;5000112;28;20647;-67
2021/06/07 10:44:50;;;;;;;26.53;23.97;;;21.70;99.90;;;;;;5014366;28;21220;-67
2021/06/07 10:47:30;;;;;;;27.40;24.80;;;21.80;99.90;;;;;;4995864;28;20615;-66
2021/06/07 10:50:08;;;;;;;25.07;22.87;;;21.90;99.90;;;;;;5011194;28;20643;-67
2021/06/07 10:52:40;;;;;;;25.00;22.60;;;22.00;99.90;;;;;;5000813;28;20704;-67
2021/06/07 10:55:16;;;;;;;26.73;23.97;;;22.00;99.90;;;;;;5018052;28;20623;-67
2021/06/07 10:57:49;;;;;;;27.77;24.73;;;22.10;99.90;;;;;;5014266;28;20623;-67
2021/06/07 11:00:39;;;;;;;26.50;24.10;;;22.10;99.90;;;;;;5016003;28;20659;-67
2021/06/07 11:03:28;;;;;;;27.43;24.73;;;22.10;99.90;;;;;;5017410;28;20639;-67
2021/06/07 11:05:59;;;;;;;27.40;24.90;;;22.20;99.90;;;;;;5015836;28;21060;-67
2021/06/07 11:08:30;;;;;;;27.30;24.40;;;22.30;99.90;;;;;;4999091;28;20656;-67
2021/06/07 11:11:39;;;;;;;25.27;22.90;;;22.40;99.90;;;;;;4984093;28;20658;-68
2021/06/07 11:14:07;;;;;;;24.47;22.17;;;22.60;99.90;;;;;;5010217;28;21230;-68
2021/06/07 11:16:43;;;;;;;25.57;23.30;;;22.70;99.90;;;;;;5021334;28;21222;-68
2021/06/07 11:19:11;;;;;;;27.10;24.40;;;22.90;99.90;;;;;;5004439;28;20659;-68
2021/06/07 11:21:48;;;;;;;24.17;22.03;;;23.00;99.90;;;;;;5001082;28;20635;-68
2021/06/07 11:24:40;;;;;;;23.03;21.03;;;23.20;99.90;;;;;;5007751;28;20656;-69
2021/06/07 11:27:29;;;;;;;22.33;20.23;;;23.30;99.90;;;;;;5001807;28;20662;-70
2021/06/07 11:30:19;;;;;;;23.43;21.33;;;23.40;99.90;;;;;;4987027;28;20697;-70
2021/06/07 11:32:44;;;;;;;24.37;22.13;;;23.50;99.90;;;;;;5002723;28;20627;-69
2021/06/07 11:35:39;;;;;;;23.57;21.57;;;23.60;99.90;;;;;;4989034;28;20626;-69
2021/06/07 11:38:36;;;;;;;24.10;21.90;;;23.60;99.90;;;;;;4986060;28;20181;-69
2021/06/07 11:41:26;;;;;;;24.33;22.03;;;23.80;99.90;;;;;;5000848;28;20648;-68
2021/06/07 11:43:52;;;;;;;22.70;20.77;;;23.80;99.90;;;;;;4988914;28;20702;-69
2021/06/07 11:46:29;;;;;;;24.37;22.23;;;24.00;99.90;;;;;;4993751;28;20642;-69
2021/06/07 11:49:07;;;;;;;23.90;21.60;;;24.00;99.90;;;;;;5004776;28;20629;-69
2021/06/07 11:51:37;;;;;;;25.70;23.33;;;24.10;99.90;;;;;;5012865;28;21768;-69
2021/06/07 11:54:24;;;;;;;25.23;22.83;;;24.10;99.90;;;;;;5001298;28;20675;-68
2021/06/07 11:56:58;;;;;;;24.43;22.30;;;24.20;99.90;;;;;;5005580;28;20627;-69
2021/06/07 11:59:32;;;;;;;24.37;22.10;;;24.40;99.90;;;;;;4999960;28;20646;-69
2021/06/07 12:02:00;;;;;;;27.90;25.23;;;24.50;99.90;;;;;;4992965;28;20627;-69
2021/06/07 12:04:30;;;;;;;27.20;24.67;;;24.60;99.90;;;;;;4991198;28;20651;-69
2021/06/07 12:07:07;;;;;;;25.83;23.43;;;24.70;99.90;;;;;;4987844;28;20643;-69
2021/06/07 12:09:35;;;;;;;22.93;20.83;;;24.60;99.90;;;;;;5009514;28;21416;-69
2021/06/07 12:12:02;;;;;;;22.37;20.20;;;24.60;99.90;;;;;;5014791;28;20621;-69
2021/06/07 12:14:29;;;;;;;23.23;21.13;;;24.60;99.90;;;;;;5015525;28;20643;-69
2021/06/07 12:17:15;;;;;;;23.07;21.17;;;24.70;99.90;;;;;;4991386;28;20623;-70
2021/06/07 12:19:42;;;;;;;22.03;19.90;;;24.80;99.90;;;;;;5000340;28;20708;-69
2021/06/07 12:22:26;;;;;;;22.70;20.70;;;24.90;99.90;;;;;;4991443;28;20619;-70
2021/06/07 12:28:20;;;;;;;21.90;20.00;;;24.90;99.90;;;;;;4976558;28;20643;-69
2021/06/07 12:30:56;;;;;;;22.60;20.60;;;24.90;99.90;;;;;;4997483;28;20647;-67
2021/06/07 12:33:41;;;;;;;21.40;19.60;;;25.00;99.90;;;;;;5016566;28;21057;-68
2021/06/07 12:36:09;;;;;;;21.90;19.90;;;25.00;99.90;;;;;;4994056;28;21210;-69
2021/06/07 12:38:43;;;;;;;22.73;20.83;;;25.00;99.90;;;;;;5011097;28;20603;-70
2021/06/07 12:41:09;;;;;;;22.27;20.27;;;25.00;99.90;;;;;;5009127;28;22367;-70
2021/06/07 12:43:45;;;;;;;19.10;17.50;;;24.90;99.90;;;;;;5009169;28;20783;-70